Aérodrome :
LOGIN :

S'inscrire | Disclaimer

   EN    FR    IT 

 










Légende :    VFR   VFR Marginal   IFR   IFR Intensif   IFR Très Intensif
Visi : 
Plafond : 
>= 8 km
>= 3000ft
5 à 8 km
1000 à 3000 ft
1500m à 5 km
500 à 1000 ft
800 à 1500m
200 à 500 ft
< 800m
< 200 ft
Symboles :   Orages  Brouillard  Fortes neiges  Fortes précipitations  Vent > 20 kt
SIGMETs :   Divers  Orages  Givrage  Turbulence  Onde Orograph.  Cendres Volcan.






- Altitude de l'aérodrome : 266 ft
- Code IATA : NCL


EGNT - Newcastle

DERNIER METAR :
  • 082050Z 24012KT 9999 BKN022 05/04 Q0981

METARs EXPIRÉS :
  • 082020Z 25015KT 9999 -RA SCT016 BKN032 05/04 Q0981
  • 081950Z 24014KT 9999 -RA FEW018 SCT032 05/03 Q0981
  • 081920Z 23013G25KT 9999 -RA FEW018 SCT032 05/03 Q0981
  • 081850Z 24017G27KT 210V270 9999 -SHRA FEW035 06/03 Q0981
  • 081820Z 24016KT 9999 FEW035 05/02 Q0981

TAF TAF EGNT
Valide du 08 à 18h jusqu'au 09 à 18h UTC


081657Z 0818/0918 25020G30KT 9999 SCT015
BECMG 0818/0821 23010KT
TEMPO 0818/0824 22018G28KT 7000 SHRA
PROB40
TEMPO 0821/0824 BKN014
BECMG 0900/0903 31010KT
TEMPO 0903/0915 31018G28KT
BECMG 0915/0918 25009KT
ATIS : +44 191 214 3400



MET'MAP, la Météo Aéronautique d'un coup d'oeil ! - Copyright ORBIFLY Décembre 2007 - Disclaimer

ORBIFLY MET'MAP TEAM :

Programmation & Développement : Alexandra Zaïnal
Sur une idée originale de : Baudouin d'Aumeries
Assistance à la programmation : Marc-Olivier Méhu
Soutien technique & logistique : Manuel Goepfert

Contact : metmap@orbifly.com




SOURCES & CREDITS :

   NOAA